Terminal Aerodrome Forecast
Issued by NWS

Home | Current Version | Previous Version | Text Only | Print | Product List | Glossary Off
Versions: 1 2 3 4 5 6 7 8 9 10 11 12 13 14 15 16 17 18 19 20 21 22 23 24 25 26 27 28 29 30

526
FTUS43 KLOT 051140
TAFORD
TAF
KORD 051140Z 0512/0618 26010KT 6SM BR OVC006
     FM051300 23009KT 2SM BR OVC004
      TEMPO 0514/0517 3/4SM BR VV003
     FM051700 20010KT 2SM BR OVC003
     FM051900 19010KT 3SM BR OVC004
     FM052300 16008KT 4SM BR OVC006
     FM060200 15007KT 3SM BR OVC005
     FM061200 22005KT P6SM OVC008=

USA.gov is the U.S. government's official web portal to all federal, state and local government web resources and services.